»·PEaware :: CWG996 KDCA-KPHX

CWG996 :: KDCA-KPHX

FLIGHT INFORMATION

Flight Status: Arrived
Operator: Unknown
More flights by this operator :: More flights under this callsign
Pilot: Andrew J. (13363)
Aircraft: Unknown
(LEGA)
More flights by this aircraft type
Origin: KDCA Ronald Reagan Washington Natl
United States
Destination: KPHX Phoenix Sky Harbor Intl
United States
More flights between these airports :: More routes between these airports
Route: CLTCH2 FLASK VXV MEM J66 EWM DRRVR PINNG1
File this flight plan on PilotEdge
Remarks:
Altitude:
(Current/Filed)
38,000ft
Speed:
(Current/Filed)
426kts
Departed: 26-May-19 10:26 PM
Arrived: 27-May-19 03:20 AM
Distance/Time
Traveled:
1715nm/4:54
Distance/Time
To Go:
Arrived

Flight Plot

Page will automatically refresh every two minutes.

Flight plan parsing failed; only flown route is shown


Map Options




Map Legend


Flown Route
Filed Route
Departure Airport
Arrival Airport
Navaid (VOR, NDB)
Fix

Horizontal Profiles

Position Reports

Time Latitude Longitude Heading Altitude Ground
Speed
26-May-19 22:08 38.846088 -77.046148 218 21ft 0kts
26-May-19 22:10 38.846088 -77.046148 218 21ft 0kts
26-May-19 22:10 38.846088 -77.046148 218 21ft 0kts
26-May-19 22:11 38.846088 -77.046148 218 21ft 0kts
26-May-19 22:12 38.846088 -77.046148 218 21ft 0kts
26-May-19 22:13 38.846088 -77.046148 218 21ft 0kts
26-May-19 22:14 38.846088 -77.046148 218 21ft 0kts
26-May-19 22:15 38.846088 -77.046148 218 21ft 0kts
26-May-19 22:16 38.846088 -77.046148 218 21ft 0kts
26-May-19 22:17 38.846088 -77.046148 218 21ft 0kts
26-May-19 22:18 38.846088 -77.046148 218 21ft 0kts
26-May-19 22:19 38.846088 -77.046148 218 21ft 0kts
26-May-19 22:20 38.846088 -77.046148 218 21ft 0kts
26-May-19 22:21 38.846081 -77.046155 214 21ft 0kts
26-May-19 22:22 38.845944 -77.045581 74 21ft 4kts
26-May-19 22:23 38.845170 -77.041645 134 21ft 20kts
26-May-19 22:24 38.842536 -77.036854 9 21ft 2kts
26-May-19 22:25 38.868223 -77.039727 350 653ft 168kts
26-May-19 22:26 38.906193 -77.079859 293 4064ft 196kts
26-May-19 22:27 38.942520 -77.130077 324 7470ft 221kts
26-May-19 22:28 38.985408 -77.196554 275 10773ft 263kts
26-May-19 22:29 38.967784 -77.292608 221 13829ft 314kts
26-May-19 22:30 38.894863 -77.359246 220 16527ft 328kts
26-May-19 22:31 38.822860 -77.424423 221 19152ft 330kts
26-May-19 22:32 38.748522 -77.491577 221 21757ft 326kts
26-May-19 22:33 38.685990 -77.571631 233 23671ft 327kts
26-May-19 22:34 38.621837 -77.661552 232 24891ft 355kts
26-May-19 22:35 38.552738 -77.758100 232 26197ft 379kts
26-May-19 22:36 38.478816 -77.861827 232 27264ft 409kts
26-May-19 22:37 38.409791 -77.973944 239 29653ft 397kts
26-May-19 22:38 38.346491 -78.087997 239 31769ft 390kts
26-May-19 22:39 38.284430 -78.199463 240 33607ft 383kts
26-May-19 22:40 38.222842 -78.309775 241 34879ft 386kts
26-May-19 22:41 38.157896 -78.423665 239 35375ft 409kts
26-May-19 22:42 38.087498 -78.541468 239 35889ft 427kts
26-May-19 22:43 38.017272 -78.658500 239 36027ft 412kts
26-May-19 22:44 37.946688 -78.775765 238 36035ft 425kts
26-May-19 22:45 37.874922 -78.894509 238 36024ft 422kts
26-May-19 22:46 37.803797 -79.011780 238 36031ft 415kts
26-May-19 22:47 37.733098 -79.127961 238 36061ft 417kts
26-May-19 22:48 37.662775 -79.244619 239 36087ft 417kts
26-May-19 22:49 37.593377 -79.361577 239 36087ft 416kts
26-May-19 22:50 37.523797 -79.478442 239 36086ft 416kts
26-May-19 22:51 37.454227 -79.594881 239 36084ft 416kts
26-May-19 22:52 37.384315 -79.711499 238 36095ft 417kts
26-May-19 22:53 37.314155 -79.828088 238 36094ft 417kts
26-May-19 22:54 37.244184 -79.943976 238 36088ft 417kts
26-May-19 22:55 37.173817 -80.060115 238 36118ft 419kts
26-May-19 22:56 37.102971 -80.176638 238 36164ft 419kts
26-May-19 22:57 37.032080 -80.292832 238 36164ft 420kts
26-May-19 22:58 36.986551 -80.423123 254 36163ft 409kts
26-May-19 22:59 36.947264 -80.556819 254 36162ft 409kts
26-May-19 23:00 36.907835 -80.690456 254 36171ft 410kts
26-May-19 23:01 36.869196 -80.820827 254 36155ft 410kts
26-May-19 23:02 36.829749 -80.953268 254 36160ft 410kts
26-May-19 23:03 36.789481 -81.087829 254 36175ft 410kts
26-May-19 23:04 36.749995 -81.219157 254 36180ft 404kts
26-May-19 23:05 36.710255 -81.350712 254 36178ft 405kts
26-May-19 23:06 36.670491 -81.481717 254 36180ft 405kts
26-May-19 23:07 36.630668 -81.612339 253 36176ft 407kts
26-May-19 23:08 36.590168 -81.744568 253 36196ft 407kts
26-May-19 23:09 36.549564 -81.876514 253 36188ft 408kts
26-May-19 23:10 36.508927 -82.007916 253 36180ft 408kts
26-May-19 23:11 36.468130 -82.139302 253 36154ft 408kts
26-May-19 23:12 36.426993 -82.271107 253 36153ft 409kts
26-May-19 23:13 36.385914 -82.402165 253 36152ft 407kts
26-May-19 23:14 36.344631 -82.533279 253 36152ft 407kts
26-May-19 23:15 36.303472 -82.663390 252 36155ft 407kts
26-May-19 23:16 36.262064 -82.793726 252 36158ft 406kts
26-May-19 23:17 36.220528 -82.923881 252 36149ft 406kts
26-May-19 23:18 36.178984 -83.053479 252 36139ft 405kts
26-May-19 23:19 36.137280 -83.182995 252 36137ft 405kts
26-May-19 23:20 36.095348 -83.312678 252 36135ft 405kts
26-May-19 23:21 36.053433 -83.441708 252 36135ft 406kts
26-May-19 23:22 36.011300 -83.570845 252 36133ft 406kts
26-May-19 23:23 35.969102 -83.699622 251 36143ft 408kts
26-May-19 23:24 35.926486 -83.829131 251 36145ft 407kts
26-May-19 23:25 35.897132 -83.959716 264 36142ft 401kts
26-May-19 23:26 35.880667 -84.095398 264 36144ft 400kts
26-May-19 23:27 35.864123 -84.231161 264 36145ft 401kts
26-May-19 23:28 35.847426 -84.366853 264 36142ft 402kts
26-May-19 23:29 35.830484 -84.503270 264 36140ft 402kts
26-May-19 23:30 35.813460 -84.639031 264 36139ft 402kts
26-May-19 23:31 35.796545 -84.772681 263 36147ft 402kts
26-May-19 23:32 35.779170 -84.908740 263 36143ft 402kts
26-May-19 23:33 35.761665 -85.044498 263 36147ft 402kts
26-May-19 23:34 35.744046 -85.179934 263 36143ft 401kts
26-May-19 23:35 35.726340 -85.314838 263 36141ft 400kts
26-May-19 23:36 35.708526 -85.449324 263 36141ft 399kts
26-May-19 23:37 35.690531 -85.583990 263 36139ft 397kts
26-May-19 23:38 35.672649 -85.716727 262 36148ft 398kts
26-May-19 23:39 35.654464 -85.850449 263 36147ft 396kts
26-May-19 23:40 35.636172 -85.983860 263 36141ft 397kts
26-May-19 23:41 35.617737 -86.117189 262 36117ft 396kts
26-May-19 23:42 35.599111 -86.250758 262 36107ft 396kts
26-May-19 23:43 35.580400 -86.383829 262 36105ft 396kts
26-May-19 23:44 35.561520 -86.516994 262 36104ft 396kts
26-May-19 23:45 35.542565 -86.649607 262 36103ft 397kts
26-May-19 23:46 35.523202 -86.783990 262 36112ft 397kts
26-May-19 23:47 35.503806 -86.917457 262 36110ft 397kts
26-May-19 23:48 35.484239 -87.051096 262 36111ft 397kts
26-May-19 23:49 35.464631 -87.183909 262 36108ft 396kts
26-May-19 23:50 35.444874 -87.316650 262 36112ft 395kts
26-May-19 23:51 35.425105 -87.448498 262 36112ft 395kts
26-May-19 23:52 35.405159 -87.580508 262 36114ft 393kts
26-May-19 23:53 35.385211 -87.711466 261 36126ft 394kts
26-May-19 23:54 35.364984 -87.843297 261 36129ft 394kts
26-May-19 23:55 35.344670 -87.974730 261 36111ft 394kts
26-May-19 23:56 35.324287 -88.105564 261 36091ft 391kts
26-May-19 23:57 35.303768 -88.236327 261 36089ft 392kts
26-May-19 23:58 35.283096 -88.367107 261 36087ft 392kts
26-May-19 23:59 35.262265 -88.497923 261 36086ft 392kts
27-May-19 00:00 35.241252 -88.628940 261 36085ft 393kts
27-May-19 00:01 35.220347 -88.758353 260 36100ft 391kts
27-May-19 00:02 35.199137 -88.888726 260 36091ft 392kts
27-May-19 00:03 35.177765 -89.019097 260 36091ft 391kts
27-May-19 00:04 35.156275 -89.149427 260 36087ft 391kts
27-May-19 00:05 35.134643 -89.279404 260 36088ft 390kts
27-May-19 00:06 35.112967 -89.409125 260 36087ft 390kts
27-May-19 00:07 35.091181 -89.538437 260 36085ft 390kts
27-May-19 00:09 35.069318 -89.667268 259 36092ft 390kts
27-May-19 00:10 35.047221 -89.796678 259 36094ft 390kts
27-May-19 00:11 35.024932 -89.926320 259 36092ft 390kts
27-May-19 00:12 35.004635 -90.055936 261 36086ft 388kts
27-May-19 00:13 34.985848 -90.185246 261 36079ft 388kts
27-May-19 00:14 34.966949 -90.314407 261 36070ft 388kts
27-May-19 00:15 34.947903 -90.443722 260 36056ft 388kts
27-May-19 00:16 34.928723 -90.572786 260 36057ft 387kts
27-May-19 00:17 34.909380 -90.702026 260 36077ft 387kts
27-May-19 00:18 34.889917 -90.831105 260 36075ft 387kts
27-May-19 00:19 34.870358 -90.959886 260 36074ft 386kts
27-May-19 00:20 34.850767 -91.087894 259 36068ft 386kts
27-May-19 00:21 34.830983 -91.216201 259 36065ft 386kts
27-May-19 00:22 34.811043 -91.344570 259 36060ft 384kts
27-May-19 00:23 34.791123 -91.471885 259 36063ft 384kts
27-May-19 00:24 34.770971 -91.599789 259 36066ft 385kts
27-May-19 00:25 34.750676 -91.727673 259 36075ft 384kts
27-May-19 00:26 34.730254 -91.855477 259 36077ft 385kts
27-May-19 00:27 34.709766 -91.982742 259 36072ft 384kts
27-May-19 00:28 34.689206 -92.109616 258 36061ft 383kts
27-May-19 00:29 34.663358 -92.234864 253 36054ft 383kts
27-May-19 00:29 34.636600 -92.337367 252 36053ft 383kts
27-May-19 00:31 34.598874 -92.480596 252 36055ft 382kts
27-May-19 00:32 34.566521 -92.602820 253 36054ft 381kts
27-May-19 00:32 34.539329 -92.705117 252 36071ft 380kts
27-May-19 00:34 34.501364 -92.847323 252 36067ft 380kts
27-May-19 00:34 34.474198 -92.948622 252 36072ft 379kts
27-May-19 00:35 34.441525 -93.069941 251 36053ft 378kts
27-May-19 00:36 34.408900 -93.190581 251 36051ft 377kts
27-May-19 00:37 34.376039 -93.311539 251 36049ft 377kts
27-May-19 00:39 34.337627 -93.452260 251 36048ft 377kts
27-May-19 00:39 34.310206 -93.552276 251 36046ft 377kts
27-May-19 00:40 34.277034 -93.672731 251 36057ft 378kts
27-May-19 00:41 34.243674 -93.793400 250 36046ft 378kts
27-May-19 00:42 34.210246 -93.913781 250 36059ft 377kts
27-May-19 00:43 34.176816 -94.033658 250 36057ft 377kts
27-May-19 00:44 34.143163 -94.153814 250 36038ft 377kts
27-May-19 00:45 34.109391 -94.273861 250 36029ft 376kts
27-May-19 00:46 34.075683 -94.393184 250 36028ft 377kts
27-May-19 00:47 34.041792 -94.512652 250 36027ft 377kts
27-May-19 00:48 34.007825 -94.631891 250 36025ft 376kts
27-May-19 00:49 33.973784 -94.750868 250 36036ft 378kts
27-May-19 00:50 33.939539 -94.870101 250 36036ft 378kts
27-May-19 00:51 33.905062 -94.989651 250 36020ft 378kts
27-May-19 00:52 33.870744 -95.108143 249 36023ft 377kts
27-May-19 00:53 33.836176 -95.226935 249 36019ft 377kts
27-May-19 00:54 33.801549 -95.345544 249 36016ft 377kts
27-May-19 00:55 33.766761 -95.464108 249 36014ft 376kts
27-May-19 00:56 33.731881 -95.582548 249 36012ft 376kts
27-May-19 00:57 33.696828 -95.701092 248 36025ft 375kts
27-May-19 00:58 33.661807 -95.819073 248 36021ft 375kts
27-May-19 00:59 33.626797 -95.936509 248 36019ft 375kts
27-May-19 01:00 33.591535 -96.054354 248 36014ft 375kts
27-May-19 01:01 33.556174 -96.172031 248 36001ft 375kts
27-May-19 01:02 33.506278 -96.279709 233 35988ft 375kts
27-May-19 01:03 33.440667 -96.376859 232 35977ft 376kts
27-May-19 01:04 33.374774 -96.473733 232 35974ft 376kts
27-May-19 01:05 33.308869 -96.570362 232 35972ft 375kts
27-May-19 01:06 33.242923 -96.666781 232 35992ft 375kts
27-May-19 01:07 33.176697 -96.763380 232 35991ft 375kts
27-May-19 01:08 33.110504 -96.859666 232 35989ft 375kts
27-May-19 01:09 33.044191 -96.955874 232 35991ft 375kts
27-May-19 01:10 32.978033 -97.051586 232 35987ft 374kts
27-May-19 01:11 32.911913 -97.147039 232 35975ft 374kts
27-May-19 01:12 32.877972 -97.261888 256 35977ft 376kts
27-May-19 01:13 32.860431 -97.384221 257 35974ft 374kts
27-May-19 01:14 32.843025 -97.506094 257 35974ft 375kts
27-May-19 01:15 32.825482 -97.627942 257 35984ft 374kts
27-May-19 01:16 32.807747 -97.750130 257 35987ft 374kts
27-May-19 01:17 32.790015 -97.871545 257 35986ft 373kts
27-May-19 01:18 32.772100 -97.993348 257 35977ft 374kts
27-May-19 01:19 32.754126 -98.114717 257 35962ft 373kts
27-May-19 01:20 32.736012 -98.236189 257 35952ft 373kts
27-May-19 01:21 32.722011 -98.358740 261 35948ft 375kts
27-May-19 01:22 32.713786 -98.482090 262 36321ft 374kts
27-May-19 01:23 32.705429 -98.607388 261 36792ft 385kts
27-May-19 01:24 32.696973 -98.731914 261 36948ft 376kts
27-May-19 01:25 32.688391 -98.856486 261 36960ft 378kts
27-May-19 01:26 32.679642 -98.981677 261 36949ft 380kts
27-May-19 01:27 32.670810 -99.106351 261 36937ft 379kts
27-May-19 01:28 32.661870 -99.230727 261 36934ft 379kts
27-May-19 01:29 32.652793 -99.355308 261 36932ft 379kts
27-May-19 01:30 32.643620 -99.479542 261 36930ft 378kts
27-May-19 01:31 32.634252 -99.604575 261 36928ft 382kts
27-May-19 01:32 32.624725 -99.730210 261 36940ft 382kts
27-May-19 01:33 32.615112 -99.855252 261 36939ft 381kts
27-May-19 01:34 32.605348 -99.980604 261 36946ft 381kts
27-May-19 01:35 32.595468 -100.105835 261 36953ft 382kts
27-May-19 01:36 32.585470 -100.230940 261 36954ft 382kts
27-May-19 01:37 32.575283 -100.356876 261 36952ft 383kts
27-May-19 01:38 32.564964 -100.482790 261 36950ft 385kts
27-May-19 01:39 32.554477 -100.609139 261 36946ft 386kts
27-May-19 01:40 32.543837 -100.735889 260 36958ft 386kts
27-May-19 01:41 32.533083 -100.862553 260 36958ft 388kts
27-May-19 01:42 32.522097 -100.990082 260 36960ft 389kts
27-May-19 01:43 32.510981 -101.117777 260 36962ft 390kts
27-May-19 01:44 32.499709 -101.245751 261 36960ft 391kts
27-May-19 01:45 32.488270 -101.374126 260 36959ft 392kts
27-May-19 01:46 32.476709 -101.502333 260 36958ft 393kts
27-May-19 01:47 32.465005 -101.630671 260 36958ft 392kts
27-May-19 01:48 32.453173 -101.758942 260 36970ft 392kts
27-May-19 01:49 32.441172 -101.887607 260 36970ft 392kts
27-May-19 01:50 32.429082 -102.015760 260 36970ft 393kts
27-May-19 01:51 32.416847 -102.144093 260 36968ft 393kts
27-May-19 01:52 32.404426 -102.272948 260 36961ft 393kts
27-May-19 01:53 32.391909 -102.401416 260 36956ft 393kts
27-May-19 01:54 32.379269 -102.529752 260 36952ft 393kts
27-May-19 01:55 32.366705 -102.656001 259 36950ft 393kts
27-May-19 01:56 32.353575 -102.786569 260 36954ft 394kts
27-May-19 01:57 32.340542 -102.914846 260 36950ft 394kts
27-May-19 01:58 32.327318 -103.043671 260 36940ft 394kts
27-May-19 01:59 32.313994 -103.172053 260 36927ft 394kts
27-May-19 02:00 32.300578 -103.300257 260 36922ft 393kts
27-May-19 02:01 32.287059 -103.428059 260 36920ft 393kts
27-May-19 02:02 32.273371 -103.556190 260 36919ft 392kts
27-May-19 02:03 32.259555 -103.684244 259 36928ft 392kts
27-May-19 02:04 32.245673 -103.811757 259 36927ft 392kts
27-May-19 02:05 32.231647 -103.939334 259 36926ft 392kts
27-May-19 02:06 32.217479 -104.067006 259 36956ft 392kts
27-May-19 02:07 32.203151 -104.194935 259 36974ft 393kts
27-May-19 02:08 32.188715 -104.322556 259 36975ft 392kts
27-May-19 02:09 32.174182 -104.450055 259 36976ft 392kts
27-May-19 02:10 32.159515 -104.577393 259 36971ft 391kts
27-May-19 02:11 32.144769 -104.704263 259 36982ft 391kts
27-May-19 02:12 32.129895 -104.831192 259 36980ft 390kts
27-May-19 02:13 32.114928 -104.957755 259 36988ft 390kts
27-May-19 02:14 32.099866 -105.084042 259 37006ft 389kts
27-May-19 02:15 32.084657 -105.210452 259 37012ft 389kts
27-May-19 02:16 32.069559 -105.334903 259 37008ft 387kts
27-May-19 02:17 32.054056 -105.461587 259 37007ft 386kts
27-May-19 02:18 32.042362 -105.589545 269 37022ft 404kts
27-May-19 02:19 32.048614 -105.721341 269 37018ft 400kts
27-May-19 02:20 32.055074 -105.853015 269 37017ft 400kts
27-May-19 02:21 32.061374 -105.984242 269 37004ft 400kts
27-May-19 02:22 32.067527 -106.115247 269 36994ft 400kts
27-May-19 02:23 32.073560 -106.246551 269 36996ft 400kts
27-May-19 02:24 32.079435 -106.377362 269 36988ft 401kts
27-May-19 02:25 32.085179 -106.508442 269 36991ft 400kts
27-May-19 02:26 32.090795 -106.639492 269 36989ft 400kts
27-May-19 02:27 32.096290 -106.771021 268 36999ft 400kts
27-May-19 02:28 32.101619 -106.901633 268 37008ft 400kts
27-May-19 02:29 32.106838 -107.033173 268 37011ft 400kts
27-May-19 02:30 32.111906 -107.164161 268 37012ft 400kts
27-May-19 02:31 32.116848 -107.295491 267 37010ft 401kts
27-May-19 02:32 32.121639 -107.426312 267 37009ft 400kts
27-May-19 02:33 32.126308 -107.557572 267 37007ft 400kts
27-May-19 02:34 32.130840 -107.688728 267 37019ft 399kts
27-May-19 02:36 32.135219 -107.819475 267 37017ft 399kts
27-May-19 02:37 32.139461 -107.950047 267 37015ft 399kts
27-May-19 02:38 32.143574 -108.080814 267 37019ft 399kts
27-May-19 02:39 32.147552 -108.211588 267 37026ft 399kts
27-May-19 02:40 32.151394 -108.342293 267 37029ft 399kts
27-May-19 02:41 32.155098 -108.472768 267 37027ft 398kts
27-May-19 02:42 32.158663 -108.603252 267 37024ft 397kts
27-May-19 02:43 32.162041 -108.731799 266 37036ft 397kts
27-May-19 02:44 32.165321 -108.860612 266 37029ft 382kts
27-May-19 02:45 32.168361 -108.986536 266 37032ft 384kts
27-May-19 02:46 32.171297 -109.112453 266 37017ft 383kts
27-May-19 02:47 32.174099 -109.238088 266 37002ft 383kts
27-May-19 02:48 32.190709 -109.362887 277 37001ft 391kts
27-May-19 02:49 32.217041 -109.487315 277 36999ft 391kts
27-May-19 02:50 32.243294 -109.611724 277 36997ft 390kts
27-May-19 02:51 32.268633 -109.732441 276 37010ft 390kts
27-May-19 02:52 32.294536 -109.856461 276 37008ft 389kts
27-May-19 02:53 32.320406 -109.981006 276 37005ft 389kts
27-May-19 02:54 32.346017 -110.104938 276 36980ft 389kts
27-May-19 02:55 32.371594 -110.229363 276 36975ft 389kts
27-May-19 02:56 32.396883 -110.353142 276 35888ft 388kts
27-May-19 02:57 32.422177 -110.477509 276 33838ft 390kts
27-May-19 02:57 32.443349 -110.582072 276 32139ft 396kts
27-May-19 02:59 32.479712 -110.727374 294 29811ft 413kts
27-May-19 02:59 32.529955 -110.816201 293 27891ft 378kts
27-May-19 03:00 32.587381 -110.916910 293 25491ft 362kts
27-May-19 03:02 32.651783 -111.029870 293 22678ft 351kts
27-May-19 03:02 32.697041 -111.109443 294 20747ft 344kts
27-May-19 03:03 32.749459 -111.201825 293 19045ft 332kts
27-May-19 03:04 32.800595 -111.292281 294 17333ft 326kts
27-May-19 03:05 32.850891 -111.381443 295 15632ft 324kts
27-May-19 03:06 32.901005 -111.470475 296 13930ft 323kts
27-May-19 03:07 32.979822 -111.521936 332 12306ft 347kts
27-May-19 03:08 33.067517 -111.564748 333 10646ft 346kts
27-May-19 03:09 33.150343 -111.605557 334 9097ft 322kts
27-May-19 03:10 33.226123 -111.643037 333 7820ft 273kts
27-May-19 03:11 33.290913 -111.680640 329 6582ft 247kts
27-May-19 03:12 33.351247 -111.715891 329 5436ft 237kts
27-May-19 03:13 33.405575 -111.754352 293 4890ft 223kts
27-May-19 03:14 33.428841 -111.824127 273 3885ft 223kts
27-May-19 03:15 33.429283 -111.890138 265 2660ft 170kts
27-May-19 03:16 33.428999 -111.936285 267 2215ft 138kts
27-May-19 03:17 33.428872 -111.979579 267 1579ft 126kts
27-May-19 03:18 33.428858 -112.016196 269 1119ft 65kts
27-May-19 03:19 33.427735 -112.023263 274 1116ft 6kts
27-May-19 03:20 33.427193 -112.023142 88 1116ft 8kts
27-May-19 03:21 33.426926 -112.022699 269 1116ft 0kts
27-May-19 03:22 33.426926 -112.022699 269 1116ft 0kts
27-May-19 03:23 33.426926 -112.022699 269 1116ft 0kts
27-May-19 03:24 33.426926 -112.022699 269 1116ft 0kts
27-May-19 03:25 33.426926 -112.022699 269 1116ft 0kts
27-May-19 03:26 33.426926 -112.022699 269 1116ft 0kts
27-May-19 03:27 33.426926 -112.022699 269 1116ft 0kts
27-May-19 03:28 33.426926 -112.022699 269 1116ft 0kts
27-May-19 03:29 33.426926 -112.022699 269 1116ft 0kts
27-May-19 03:30 33.426926 -112.022699 269 1116ft 0kts

Navigation Log

Ident Type
Flight plan parsing failed, navigation log unavailable